Time;durP1;ratioP1;P1;durP2;ratioP2;P2;SDS_P1;SDS_P2;PMS_P1;PMS_P2;Temp;Humidity;BMP_temperature;BMP_pressure;BME280_temperature;BME280_humidity;BME280_pressure;Samples;Min_cycle;Max_cycle;Signal;HPM_P1;HPM_P2
2022/04/13 00:00:51;;;;;;;12.70;4.50;;;;;;;0.63;82.19;100695.63;104596;1277;60612;-66
2022/04/13 00:03:39;;;;;;;11.20;4.00;;;;;;;0.59;82.03;100693.48;104532;1278;60954;-62
2022/04/13 00:06:27;;;;;;;14.20;4.50;;;;;;;0.56;82.19;100691.45;104646;1274;74715;-65
2022/04/13 00:09:15;;;;;;;14.40;4.50;;;;;;;0.55;82.33;100691.30;104443;1277;69691;-63
2022/04/13 00:12:04;;;;;;;10.80;4.00;;;;;;;0.54;82.40;100687.33;104455;1277;73356;-65
2022/04/13 00:14:52;;;;;;;12.30;4.50;;;;;;;0.54;82.58;100684.01;104609;1274;60407;-61
2022/04/13 00:17:40;;;;;;;10.80;4.00;;;;;;;0.54;82.66;100683.84;104735;1274;61981;-63
2022/04/13 00:20:28;;;;;;;13.30;4.50;;;;;;;0.53;82.42;100682.27;104761;1274;75376;-62
2022/04/13 00:23:16;;;;;;;14.20;4.60;;;;;;;0.52;82.36;100681.25;104645;1274;67556;-64
2022/04/13 00:26:05;;;;;;;15.60;4.40;;;;;;;0.49;81.92;100676.08;104729;1274;73508;-64
2022/04/13 00:28:53;;;;;;;13.30;4.80;;;;;;;0.47;81.37;100673.52;104756;1274;60518;-66
2022/04/13 00:31:41;;;;;;;13.10;4.40;;;;;;;0.44;81.41;100668.37;104744;1274;61042;-62
2022/04/13 00:34:29;;;;;;;12.50;4.50;;;;;;;0.41;81.40;100662.00;104653;1274;75293;-70
2022/04/13 00:37:17;;;;;;;14.40;4.50;;;;;;;0.38;81.01;100658.23;104754;1274;68966;-64
2022/04/13 00:40:07;;;;;;;10.60;3.90;;;;;;;0.34;80.77;100654.64;104985;1274;72497;-65
2022/04/13 00:42:55;;;;;;;14.80;4.70;;;;;;;0.32;80.57;100648.77;104798;1274;61199;-63
2022/04/13 00:45:45;;;;;;;14.30;4.70;;;;;;;0.32;80.46;100647.89;104788;1274;60402;-63
2022/04/13 00:48:39;;;;;;;13.50;4.40;;;;;;;0.32;81.07;100647.73;104726;1274;74708;-62
2022/04/13 00:51:28;;;;;;;13.60;4.00;;;;;;;0.31;80.76;100643.91;104469;1274;69686;-62
2022/04/13 00:54:18;;;;;;;12.80;3.70;;;;;;;0.30;80.36;100642.69;104928;1274;72112;-62
2022/04/13 00:57:09;;;;;;;11.80;3.30;;;;;;;0.33;80.03;100634.95;104667;1274;60547;-64
2022/04/13 00:59:57;;;;;;;11.70;3.90;;;;;;;0.38;79.31;100636.05;104574;1274;60925;-63
2022/04/13 01:02:46;;;;;;;10.70;3.90;;;;;;;0.42;78.88;100639.11;103967;1274;1002986;-63
2022/04/13 01:05:36;;;;;;;14.00;4.30;;;;;;;0.44;79.12;100644.11;104720;1274;67418;-64
2022/04/13 01:08:27;;;;;;;13.00;4.10;;;;;;;0.43;78.79;100644.11;104750;1274;73451;-63
2022/04/13 01:11:17;;;;;;;11.40;4.00;;;;;;;0.41;78.65;100648.19;104773;1274;60579;-64
2022/04/13 01:14:06;;;;;;;12.00;4.00;;;;;;;0.40;79.12;100656.60;104758;1274;61103;-66
2022/04/13 01:16:53;;;;;;;13.40;4.60;;;;;;;0.37;79.13;100660.34;104719;1274;75563;-64
2022/04/13 01:19:41;;;;;;;11.90;4.10;;;;;;;0.34;79.26;100667.23;104706;1274;68533;-62
2022/04/13 01:22:30;;;;;;;12.40;3.90;;;;;;;0.30;79.39;100672.02;104782;1274;73485;-65
2022/04/13 01:25:20;;;;;;;11.60;4.00;;;;;;;0.27;79.12;100671.77;104702;1274;60489;-62
2022/04/13 01:28:07;;;;;;;10.80;3.80;;;;;;;0.24;78.77;100674.30;104676;1274;62138;-62
2022/04/13 01:30:55;;;;;;;12.10;3.40;;;;;;;0.21;78.11;100676.62;104690;1274;74454;-60
2022/04/13 01:33:43;;;;;;;11.10;3.70;;;;;;;0.21;77.43;100676.11;104859;1274;67578;-61
2022/04/13 01:36:34;;;;;;;13.20;3.60;;;;;;;0.22;77.15;100677.65;104703;1274;74455;-61
2022/04/13 01:39:23;;;;;;;8.80;3.50;;;;;;;0.25;77.02;100673.39;104917;1274;60571;-63
2022/04/13 01:42:15;;;;;;;11.20;3.70;;;;;;;0.28;76.79;100672.61;104761;1274;60559;-60
2022/04/13 01:45:06;;;;;;;11.00;3.60;;;;;;;0.31;76.56;100670.80;104731;1274;74900;-61
2022/04/13 01:47:54;;;;;;;12.30;3.80;;;;;;;0.31;76.71;100667.64;104757;1274;68719;-61
2022/04/13 01:50:41;;;;;;;10.20;3.20;;;;;;;0.31;76.72;100670.96;104734;1274;74375;-61
2022/04/13 01:53:29;;;;;;;8.50;3.10;;;;;;;0.30;76.79;100668.04;104915;1274;60501;-63
2022/04/13 01:56:18;;;;;;;12.70;3.30;;;;;;;0.27;76.55;100668.80;104662;1274;60629;-61
2022/04/13 01:59:07;;;;;;;11.90;3.50;;;;;;;0.23;77.03;100672.73;104625;1275;74310;-64
2022/04/13 02:01:55;;;;;;;11.10;4.20;;;;;;;0.19;77.15;100675.30;104687;1274;66339;-63
2022/04/13 02:04:43;;;;;;;10.60;3.60;;;;;;;0.14;77.47;100677.49;104667;1274;71465;-62
2022/04/13 02:07:31;;;;;;;9.90;3.30;;;;;;;0.10;77.87;100681.29;103946;1274;1003061;-62
2022/04/13 02:10:19;;;;;;;11.40;3.30;;;;;;;0.06;77.77;100681.20;104666;1274;61291;-67
2022/04/13 02:13:07;;;;;;;11.20;3.50;;;;;;;0.01;77.63;100682.19;104786;1274;74626;-62
2022/04/13 02:15:55;;;;;;;11.10;3.60;;;;;;;-0.01;77.58;100682.58;104656;1274;70019;-63
2022/04/13 02:18:42;;;;;;;10.70;2.90;;;;;;;-0.01;77.78;100690.96;104637;1274;72892;-61
2022/04/13 02:21:30;;;;;;;9.60;3.00;;;;;;;-0.01;77.45;100693.75;104643;1274;60398;-62
2022/04/13 02:24:18;;;;;;;12.60;3.20;;;;;;;0.01;77.39;100697.54;104652;1274;60610;-60
2022/04/13 02:27:09;;;;;;;9.80;3.50;;;;;;;0.04;77.27;100696.95;104661;1274;76175;-70
2022/04/13 02:29:58;;;;;;;11.90;3.30;;;;;;;0.05;76.85;100693.77;104617;1274;67657;-62
2022/04/13 02:32:45;;;;;;;10.60;3.40;;;;;;;0.07;76.84;100699.50;104661;1274;71330;-63
2022/04/13 02:35:33;;;;;;;9.20;3.10;;;;;;;0.08;76.67;100698.08;104833;1274;60487;-62
2022/04/13 02:38:22;;;;;;;10.60;4.10;;;;;;;0.06;76.50;100697.94;104712;1274;60546;-61
2022/04/13 02:41:10;;;;;;;10.40;3.20;;;;;;;0.05;76.62;100696.75;104676;1274;75641;-64
2022/04/13 02:43:58;;;;;;;11.20;3.30;;;;;;;0.02;76.46;100697.52;104694;1274;68854;-67
2022/04/13 02:46:47;;;;;;;9.10;3.50;;;;;;;-0.01;76.55;100701.44;105151;1274;73454;-65
2022/04/13 02:49:35;;;;;;;11.20;3.70;;;;;;;-0.05;76.43;100704.65;104523;1274;60566;-63
2022/04/13 02:52:25;;;;;;;11.70;3.70;;;;;;;-0.08;75.77;100705.59;104885;1274;60468;-62
2022/04/13 02:55:13;;;;;;;10.10;3.50;;;;;;;-0.10;75.06;100702.67;103954;1274;1003125;-63
2022/04/13 02:58:01;;;;;;;13.10;3.70;;;;;;;-0.10;74.68;100699.54;104658;1274;68395;-62
2022/04/13 03:00:49;;;;;;;11.70;3.40;;;;;;;-0.11;74.51;100699.56;104674;1274;73288;-60
2022/04/13 03:03:37;;;;;;;9.20;3.20;;;;;;;-0.12;74.48;100701.86;104624;1274;60533;-63
2022/04/13 03:06:25;;;;;;;9.20;3.30;;;;;;;-0.12;74.62;100697.66;104687;1274;60458;-62
2022/04/13 03:09:13;;;;;;;11.00;3.60;;;;;;;-0.12;74.64;100698.91;104815;1274;75622;-61
2022/04/13 03:12:01;;;;;;;10.50;3.30;;;;;;;-0.14;74.99;100698.24;104573;1274;68512;-63
2022/04/13 03:14:50;;;;;;;13.90;3.70;;;;;;;-0.14;74.72;100697.18;104891;1274;73594;-62
2022/04/13 03:17:38;;;;;;;16.00;5.00;;;;;;;-0.12;74.31;100696.11;103765;1274;1003138;-61
2022/04/13 03:20:26;;;;;;;14.80;5.20;;;;;;;-0.07;73.93;100696.16;104692;1274;60429;-65
2022/04/13 03:23:14;;;;;;;14.50;4.60;;;;;;;-0.02;73.70;100697.60;104825;1274;75914;-64
2022/04/13 03:26:01;;;;;;;14.60;4.50;;;;;;;0.05;73.62;100693.08;104655;1274;68399;-65
2022/04/13 03:28:50;;;;;;;15.40;4.70;;;;;;;0.10;73.56;100687.02;104870;1274;73887;-62
2022/04/13 03:31:37;;;;;;;19.00;4.80;;;;;;;0.16;73.66;100680.08;104706;1274;60464;-64
2022/04/13 03:34:26;;;;;;;16.40;4.90;;;;;;;0.20;73.61;100681.02;104716;1274;60836;-64
2022/04/13 03:37:14;;;;;;;13.20;4.70;;;;;;;0.21;73.37;100681.17;104880;1274;74729;-63
2022/04/13 03:40:02;;;;;;;14.90;4.60;;;;;;;0.21;73.64;100678.58;104141;1274;1003153;-63
2022/04/13 03:42:51;;;;;;;12.10;4.30;;;;;;;0.19;74.13;100684.89;104522;1274;73375;-61
2022/04/13 03:45:38;;;;;;;12.30;3.90;;;;;;;0.17;74.74;100683.02;104698;1274;60552;-63
2022/04/13 03:48:26;;;;;;;15.80;4.80;;;;;;;0.14;74.84;100689.73;104716;1274;61085;-64
2022/04/13 03:51:14;;;;;;;13.00;4.80;;;;;;;0.10;74.76;100698.36;104713;1274;73550;-62
2022/04/13 03:54:03;;;;;;;18.30;7.00;;;;;;;0.07;74.46;100696.89;104667;1274;69655;-61
2022/04/13 03:56:53;;;;;;;14.20;6.30;;;;;;;0.04;74.48;100700.94;104466;1274;72238;-67
2022/04/13 03:59:41;;;;;;;15.50;5.90;;;;;;;0.03;74.35;100699.23;104526;1275;60614;-64
2022/04/13 04:02:29;;;;;;;16.60;5.60;;;;;;;0.02;74.43;100695.06;104678;1274;60436;-64
2022/04/13 04:05:17;;;;;;;11.80;4.70;;;;;;;0.03;74.57;100697.15;104561;1274;75627;-64
2022/04/13 04:08:06;;;;;;;13.70;4.60;;;;;;;0.03;74.95;100701.33;104912;1274;68133;-64
2022/04/13 04:10:54;;;;;;;13.90;5.30;;;;;;;0.04;75.16;100703.41;104491;1274;70748;-66
2022/04/13 04:13:43;;;;;;;14.50;5.30;;;;;;;0.06;75.21;100699.69;104761;1274;60501;-65
2022/04/13 04:16:30;;;;;;;16.20;5.50;;;;;;;0.11;75.13;100704.64;104692;1274;60950;-63
2022/04/13 04:19:19;;;;;;;15.00;5.10;;;;;;;0.17;74.87;100708.50;104642;1274;74471;-64
2022/04/13 04:22:09;;;;;;;13.90;5.10;;;;;;;0.24;74.78;100701.17;104771;1274;69664;-65
2022/04/13 04:25:02;;;;;;;13.70;5.30;;;;;;;0.33;74.92;100693.79;103943;1274;1002785;-65
2022/04/13 04:27:50;;;;;;;13.30;5.10;;;;;;;0.42;74.77;100697.92;104071;1274;1003138;-72
2022/04/13 04:30:40;;;;;;;13.30;5.30;;;;;;;0.47;74.71;100698.33;104893;1274;60532;-68
2022/04/13 04:33:27;;;;;;;15.80;5.40;;;;;;;0.57;74.58;100708.91;104678;1274;75695;-63
2022/04/13 04:36:16;;;;;;;13.90;4.70;;;;;;;0.62;74.71;100711.38;103969;1275;1002958;-66
2022/04/13 04:39:04;;;;;;;15.60;5.30;;;;;;;0.68;74.81;100714.72;104582;1274;74014;-66
2022/04/13 04:41:52;;;;;;;18.30;5.90;;;;;;;0.73;74.69;100714.58;104489;1275;60573;-64
2022/04/13 04:44:40;;;;;;;16.50;6.10;;;;;;;0.80;75.00;100719.99;104630;1274;61091;-63
2022/04/13 04:47:28;;;;;;;13.90;5.30;;;;;;;0.88;75.02;100719.23;104702;1274;75676;-63
2022/04/13 04:50:22;;;;;;;12.60;5.50;;;;;;;0.97;74.75;100722.52;103929;1274;1003152;-66
2022/04/13 04:53:10;;;;;;;16.50;5.70;;;;;;;1.05;74.69;100718.09;104740;1275;72963;-63
2022/04/13 04:55:58;;;;;;;18.00;6.10;;;;;;;1.16;74.59;100722.48;104621;1275;60487;-65
2022/04/13 04:58:45;;;;;;;14.70;6.00;;;;;;;1.27;74.35;100726.05;104834;1274;60594;-65
2022/04/13 05:01:34;;;;;;;18.60;6.10;;;;;;;1.40;74.11;100727.07;104599;1274;72691;-67
2022/04/13 05:04:22;;;;;;;138.60;42.10;;;;;;;1.53;74.28;100725.64;104510;1275;68560;-69
2022/04/13 05:07:10;;;;;;;85.30;26.00;;;;;;;1.69;74.14;100725.51;104780;1274;73340;-68
2022/04/13 05:10:01;;;;;;;36.40;13.10;;;;;;;1.85;73.68;100725.55;104629;1274;60583;-63
2022/04/13 05:12:51;;;;;;;30.70;10.90;;;;;;;2.01;73.09;100732.20;104683;1274;61049;-62
2022/04/13 05:15:41;;;;;;;28.40;9.40;;;;;;;2.18;72.55;100736.77;104860;1274;74593;-63
2022/04/13 05:18:30;;;;;;;32.60;10.50;;;;;;;2.36;72.21;100736.02;104801;1274;69114;-64
2022/04/13 05:21:18;;;;;;;26.40;9.50;;;;;;;2.55;71.57;100737.83;105502;1274;72965;-66
2022/04/13 05:24:06;;;;;;;23.20;9.10;;;;;;;2.75;71.01;100742.59;104403;1277;60478;-63
2022/04/13 05:26:55;;;;;;;23.60;8.20;;;;;;;2.96;70.44;100742.20;104570;1276;60583;-65
2022/04/13 05:29:43;;;;;;;21.30;8.00;;;;;;;3.19;69.20;100736.48;104584;1278;75062;-65
2022/04/13 05:32:31;;;;;;;15.70;5.30;;;;;;;3.47;66.87;100734.75;104495;1277;67626;-63
2022/04/13 05:35:19;;;;;;;28.20;7.30;;;;;;;3.84;63.95;100731.09;104538;1278;74473;-64
2022/04/13 05:38:07;;;;;;;20.90;6.80;;;;;;;4.20;62.09;100724.89;104459;1277;60613;-66
2022/04/13 05:40:56;;;;;;;20.00;6.50;;;;;;;4.61;59.19;100717.91;104498;1277;61307;-62
2022/04/13 05:43:44;;;;;;;13.10;4.80;;;;;;;5.04;57.05;100725.95;104419;1276;74666;-63
2022/04/13 05:46:33;;;;;;;12.40;4.10;;;;;;;5.48;53.87;100733.30;104488;1277;66862;-63
2022/04/13 05:49:22;;;;;;;12.60;4.60;;;;;;;5.89;53.44;100734.23;104412;1278;73367;-64
2022/04/13 05:52:10;;;;;;;14.10;4.90;;;;;;;6.29;51.49;100738.33;104588;1277;60468;-64
2022/04/13 05:54:58;;;;;;;12.80;4.20;;;;;;;6.64;50.87;100734.81;104836;1277;60411;-64
2022/04/13 05:57:50;;;;;;;12.30;5.00;;;;;;;6.98;48.45;100741.39;104532;1278;74998;-64
2022/04/13 06:00:39;;;;;;;13.70;4.90;;;;;;;7.36;46.29;100741.54;104704;1277;67826;-64
2022/04/13 06:03:27;;;;;;;13.20;4.70;;;;;;;7.69;45.31;100739.73;107050;1275;73585;-61
2022/04/13 06:06:31;;;;;;;12.70;4.40;;;;;;;8.00;44.18;100734.32;107322;1277;60471;-65
2022/04/13 06:09:22;;;;;;;12.30;4.80;;;;;;;8.18;43.63;100734.70;107017;1277;60475;-65
2022/04/13 06:12:10;;;;;;;15.30;4.60;;;;;;;8.38;43.34;100736.92;106353;1277;72796;-65
2022/04/13 06:15:18;;;;;;;14.40;5.30;;;;;;;8.55;43.07;100724.33;104519;1277;65406;-68
2022/04/13 06:18:06;;;;;;;14.80;5.10;;;;;;;8.76;42.46;100712.13;104475;1277;73574;-66
2022/04/13 06:20:55;;;;;;;13.70;4.80;;;;;;;8.88;41.72;100716.72;104422;1277;60461;-63
2022/04/13 06:23:43;;;;;;;12.10;4.60;;;;;;;8.94;41.20;100724.63;104422;1278;61100;-62
2022/04/13 06:26:31;;;;;;;13.70;5.50;;;;;;;9.16;40.98;100718.02;104455;1277;75680;-64
2022/04/13 06:29:19;;;;;;;14.10;5.60;;;;;;;9.41;40.74;100715.23;104462;1277;69603;-64
2022/04/13 06:32:08;;;;;;;10.80;4.60;;;;;;;9.57;41.53;100725.55;104414;1277;73307;-62
2022/04/13 06:34:59;;;;;;;12.90;4.90;;;;;;;9.68;42.10;100732.30;104405;1277;60525;-67
2022/04/13 06:37:51;;;;;;;12.30;4.80;;;;;;;9.81;41.59;100729.23;104551;1275;60879;-66
2022/04/13 06:40:40;;;;;;;12.80;5.10;;;;;;;9.80;41.48;100728.41;104373;1277;73540;-65
2022/04/13 06:43:29;;;;;;;14.50;5.20;;;;;;;9.75;41.72;100734.00;104399;1277;68432;-63
2022/04/13 06:46:17;;;;;;;12.00;4.80;;;;;;;9.72;41.41;100735.61;104392;1277;74831;-64
2022/04/13 06:49:05;;;;;;;13.20;5.00;;;;;;;9.70;42.05;100733.46;104494;1277;60683;-66
2022/04/13 06:51:53;;;;;;;13.90;5.20;;;;;;;9.68;42.40;100734.30;104493;1277;60481;-66
2022/04/13 06:54:46;;;;;;;13.20;4.60;;;;;;;9.66;42.25;100740.61;104533;1276;75583;-65
2022/04/13 06:57:37;;;;;;;22.60;5.60;;;;;;;9.61;42.60;100728.52;104567;1278;67326;-65
2022/04/13 07:00:25;;;;;;;16.50;5.10;;;;;;;9.60;43.22;100728.44;104409;1278;73659;-64
2022/04/13 07:03:14;;;;;;;17.00;4.90;;;;;;;9.61;43.06;100733.84;104531;1278;60481;-64
2022/04/13 07:06:03;;;;;;;14.00;4.70;;;;;;;9.58;43.11;100728.39;104805;1278;60459;-63
2022/04/13 07:09:05;;;;;;;13.30;4.30;;;;;;;9.60;43.28;100727.02;104467;1278;74597;-64
2022/04/13 07:11:53;;;;;;;13.10;4.80;;;;;;;9.62;42.77;100729.52;104540;1276;68619;-65
2022/04/13 07:14:41;;;;;;;16.80;6.40;;;;;;;9.68;43.37;100734.84;104335;1278;73542;-64
2022/04/13 07:17:30;;;;;;;19.90;5.30;;;;;;;9.73;44.62;100740.52;104442;1278;60603;-64
2022/04/13 07:20:17;;;;;;;31.80;8.30;;;;;;;9.76;45.65;100743.54;104412;1278;60623;-67
2022/04/13 07:23:06;;;;;;;25.90;6.80;;;;;;;9.81;46.27;100740.58;104796;1274;75541;-66
2022/04/13 07:25:56;;;;;;;24.90;7.80;;;;;;;9.85;46.63;100740.46;104583;1274;68638;-66
2022/04/13 07:28:44;;;;;;;25.20;7.10;;;;;;;9.88;47.07;100744.52;104583;1274;74494;-64
2022/04/13 07:31:32;;;;;;;26.40;8.00;;;;;;;9.94;46.95;100748.05;104772;1274;59373;-65
2022/04/13 07:34:20;;;;;;;27.50;6.50;;;;;;;9.98;45.29;100741.95;104554;1275;60443;-67
2022/04/13 07:37:09;;;;;;;19.40;5.60;;;;;;;10.00;44.71;100740.20;104388;1275;72512;-64
2022/04/13 07:39:58;;;;;;;17.70;5.40;;;;;;;10.06;43.49;100743.38;104642;1275;69705;-66
2022/04/13 07:42:46;;;;;;;20.70;5.30;;;;;;;10.13;43.75;100748.79;104646;1274;74013;-67
2022/04/13 07:45:35;;;;;;;14.80;4.40;;;;;;;10.21;42.47;100750.05;104648;1274;60586;-64
2022/04/13 07:48:23;;;;;;;16.70;4.80;;;;;;;10.22;40.92;100747.83;104603;1274;60683;-65
2022/04/13 07:51:11;;;;;;;13.10;4.90;;;;;;;10.23;40.11;100748.67;104629;1274;74848;-66
2022/04/13 07:54:01;;;;;;;15.70;5.00;;;;;;;10.22;39.74;100741.80;104679;1274;69441;-69
2022/04/13 07:57:04;;;;;;;11.40;4.40;;;;;;;10.19;39.33;100733.86;104377;1275;74210;-68
2022/04/13 07:59:52;;;;;;;10.90;5.00;;;;;;;10.21;39.76;100725.36;104656;1274;60599;-66
2022/04/13 08:02:43;;;;;;;14.10;4.50;;;;;;;10.30;40.29;100721.23;104638;1274;61803;-68
2022/04/13 08:05:34;;;;;;;15.30;4.90;;;;;;;10.38;39.92;100718.63;104622;1274;72045;-66
2022/04/13 08:08:25;;;;;;;13.80;4.70;;;;;;;10.46;40.11;100722.88;104640;1275;68252;-67
2022/04/13 08:11:13;;;;;;;13.20;5.00;;;;;;;10.60;40.24;100725.00;104896;1274;75016;-68
2022/04/13 08:14:02;;;;;;;12.90;4.90;;;;;;;10.71;39.76;100725.11;104822;1274;61085;-65
2022/04/13 08:16:51;;;;;;;14.00;4.20;;;;;;;10.75;37.97;100734.10;104352;1275;60463;-70
2022/04/13 08:19:40;;;;;;;12.90;5.30;;;;;;;10.70;37.76;100722.52;104849;1275;74050;-67
2022/04/13 08:22:28;;;;;;;14.60;4.60;;;;;;;10.81;38.58;100716.48;104880;1274;68496;-66
2022/04/13 08:25:16;;;;;;;13.90;4.80;;;;;;;10.98;38.29;100719.91;104861;1274;74185;-68
2022/04/13 08:28:04;;;;;;;13.20;4.90;;;;;;;11.19;38.11;100723.64;104823;1274;60414;-69
2022/04/13 08:30:52;;;;;;;13.40;4.60;;;;;;;11.39;36.99;100726.13;104657;1274;60683;-67
2022/04/13 08:33:40;;;;;;;11.80;4.30;;;;;;;11.58;37.63;100724.64;104651;1274;73773;-67
2022/04/13 08:36:28;;;;;;;13.40;4.50;;;;;;;11.83;37.36;100723.70;104629;1274;67020;-67
2022/04/13 08:39:16;;;;;;;12.80;4.50;;;;;;;12.07;36.34;100729.86;104602;1274;73502;-69
2022/04/13 08:42:39;;;;;;;15.50;4.80;;;;;;;12.34;36.19;100728.92;104471;1274;60479;-66
2022/04/13 08:45:34;;;;;;;11.30;4.50;;;;;;;12.46;34.76;100724.97;104583;1274;62087;-74
2022/04/13 08:48:24;;;;;;;12.10;4.20;;;;;;;12.62;34.44;100723.81;104837;1275;74669;-67
2022/04/13 08:51:16;;;;;;;13.10;4.20;;;;;;;12.81;34.37;100719.73;104793;1274;68978;-68
2022/04/13 08:54:28;;;;;;;11.00;4.10;;;;;;;12.83;33.12;100719.56;104592;1274;73552;-68
2022/04/13 08:57:21;;;;;;;11.10;4.00;;;;;;;12.75;32.96;100718.33;104584;1274;60518;-71
2022/04/13 09:00:18;;;;;;;11.20;4.10;;;;;;;12.79;33.17;100717.14;104889;1274;60497;-66
2022/04/13 09:03:48;;;;;;;12.50;4.60;;;;;;;12.85;32.99;100718.84;104455;1275;74524;-67
2022/04/13 09:06:42;;;;;;;13.00;4.70;;;;;;;12.84;33.27;100720.91;104230;1281;252459;-70
2022/04/13 09:09:43;;;;;;;11.60;4.60;;;;;;;12.87;33.22;100723.52;103919;1284;74611;-72
2022/04/13 09:12:36;;;;;;;12.40;4.60;;;;;;;13.04;32.85;100722.20;104355;1281;60931;-67
2022/04/13 09:15:25;;;;;;;13.70;5.10;;;;;;;13.23;32.94;100708.04;103919;1284;60449;-69
2022/04/13 09:18:14;;;;;;;12.40;5.00;;;;;;;13.23;32.23;100702.39;104445;1281;74542;-68
2022/04/13 09:21:02;;;;;;;12.00;4.80;;;;;;;13.11;32.28;100702.02;105243;1284;67336;-65
2022/04/13 09:23:50;;;;;;;12.10;4.60;;;;;;;13.18;32.38;100696.75;104157;1281;71066;-66
2022/04/13 09:26:39;;;;;;;13.10;5.20;;;;;;;13.58;31.72;100704.27;104347;1281;60575;-68
2022/04/13 09:29:35;;;;;;;14.40;5.70;;;;;;;14.03;30.79;100696.39;103902;1284;60676;-68
2022/04/13 09:32:23;;;;;;;13.80;4.60;;;;;;;14.48;30.05;100698.36;104174;1281;75409;-73
2022/04/13 09:35:19;;;;;;;13.40;5.20;;;;;;;14.91;29.58;100687.61;104177;1281;67989;-66
2022/04/13 09:38:08;;;;;;;11.60;4.40;;;;;;;15.41;28.93;100685.36;104255;1281;73236;-68
2022/04/13 09:41:10;;;;;;;16.40;5.20;;;;;;;15.88;28.14;100680.06;104267;1274;61104;-68
2022/04/13 09:44:01;;;;;;;10.90;4.60;;;;;;;16.06;27.09;100685.94;104921;1274;60491;-69
2022/04/13 09:46:49;;;;;;;13.80;5.30;;;;;;;16.52;26.93;100676.29;105033;1274;73559;-69
2022/04/13 09:49:52;;;;;;;13.70;4.60;;;;;;;17.24;26.44;100665.29;105103;1275;69641;-67
2022/04/13 09:52:45;;;;;;;15.20;4.60;;;;;;;18.23;25.32;100659.72;104946;1274;73138;-70
2022/04/13 09:55:40;;;;;;;15.40;4.40;;;;;;;19.03;23.48;100653.23;104876;1274;60389;-67
2022/04/13 09:58:33;;;;;;;9.60;4.10;;;;;;;19.20;21.94;100658.49;104754;1275;60465;-70
2022/04/13 10:01:22;;;;;;;9.60;3.80;;;;;;;19.32;21.75;100649.48;104761;1274;74181;-69
2022/04/13 10:04:30;;;;;;;11.70;4.80;;;;;;;19.15;21.90;100646.06;104573;1275;68409;-67
2022/04/13 10:07:18;;;;;;;11.70;4.10;;;;;;;18.98;22.21;100644.39;104662;1275;73267;-69
2022/04/13 10:10:23;;;;;;;11.10;3.90;;;;;;;18.66;22.60;100643.36;104871;1274;60477;-68
2022/04/13 10:13:34;;;;;;;15.10;4.40;;;;;;;18.90;22.87;100630.62;104875;1274;60482;-68
2022/04/13 10:16:22;;;;;;;9.50;3.80;;;;;;;19.66;21.53;100638.13;104893;1274;75671;-67
2022/04/13 10:19:18;;;;;;;12.30;4.10;;;;;;;19.71;21.30;100641.39;104537;1274;68346;-67
2022/04/13 10:22:06;;;;;;;10.30;3.50;;;;;;;19.87;21.69;100633.16;104583;1275;74031;-70
2022/04/13 10:25:17;;;;;;;8.80;3.20;;;;;;;20.02;21.25;100626.38;104824;1274;60516;-68
2022/04/13 10:28:06;;;;;;;10.00;3.50;;;;;;;19.52;21.60;100630.09;104886;1275;60920;-67
2022/04/13 10:30:54;;;;;;;10.70;4.30;;;;;;;19.39;22.16;100625.70;104627;1274;74740;-69
2022/04/13 10:33:48;;;;;;;11.20;3.70;;;;;;;18.94;22.23;100627.41;105150;1274;67392;-68
2022/04/13 10:36:36;;;;;;;10.90;3.40;;;;;;;18.24;22.80;100631.42;104748;1274;73736;-68
2022/04/13 10:39:24;;;;;;;10.60;4.10;;;;;;;17.76;23.34;100632.45;104596;1275;60584;-68
2022/04/13 10:42:18;;;;;;;11.20;3.80;;;;;;;17.34;23.74;100635.85;105078;1274;60474;-68
2022/04/13 10:45:07;;;;;;;10.20;4.10;;;;;;;16.80;24.11;100626.06;104658;1275;72591;-68
2022/04/13 10:48:11;;;;;;;13.70;4.60;;;;;;;16.26;25.14;100627.82;104707;1274;69709;-67
2022/04/13 10:51:19;;;;;;;9.80;3.40;;;;;;;15.80;25.41;100632.38;104662;1274;73749;-70
2022/04/13 10:54:09;;;;;;;11.50;4.10;;;;;;;15.23;25.96;100618.17;104776;1274;60533;-70
2022/04/13 10:56:58;;;;;;;11.30;4.60;;;;;;;14.74;27.16;100613.11;104727;1275;61027;-70
2022/04/13 10:59:57;;;;;;;13.40;4.90;;;;;;;14.40;27.75;100618.13;105024;1274;74759;-73
2022/04/13 11:02:54;;;;;;;12.00;4.90;;;;;;;14.48;28.21;100616.73;105066;1274;68597;-69
2022/04/13 11:05:42;;;;;;;14.30;5.30;;;;;;;14.24;28.36;100623.95;104877;1274;72017;-70
2022/04/13 11:08:56;;;;;;;10.80;4.90;;;;;;;14.49;28.67;100629.49;104665;1274;60428;-66
2022/04/13 11:11:45;;;;;;;14.20;5.20;;;;;;;15.19;27.57;100629.05;104718;1274;60484;-69
2022/04/13 11:14:54;;;;;;;16.30;5.00;;;;;;;15.84;26.72;100627.89;104731;1275;74658;-70
2022/04/13 11:17:43;;;;;;;13.40;5.00;;;;;;;16.74;25.46;100616.09;104763;1275;69457;-68
2022/04/13 11:20:31;;;;;;;14.30;5.00;;;;;;;17.91;24.67;100611.04;104572;1275;73436;-66
2022/04/13 11:23:22;;;;;;;11.40;4.90;;;;;;;18.49;23.12;100612.02;105071;1274;60491;-69
2022/04/13 11:26:10;;;;;;;10.00;4.30;;;;;;;18.59;21.95;100611.73;104725;1274;60583;-67
2022/04/13 11:29:39;;;;;;;12.80;4.30;;;;;;;18.66;22.01;100608.86;104669;1274;73153;-69
2022/04/13 11:32:35;;;;;;;13.50;4.50;;;;;;;18.70;22.29;100608.28;104658;1274;69637;-67
2022/04/13 11:35:26;;;;;;;14.30;4.80;;;;;;;18.82;22.05;100604.81;104926;1274;72242;-66
2022/04/13 11:38:16;;;;;;;14.10;5.30;;;;;;;18.69;21.96;100622.20;104741;1274;60440;-67
2022/04/13 11:41:09;;;;;;;9.50;4.40;;;;;;;18.49;21.77;100615.42;104659;1274;61814;-67
2022/04/13 11:44:16;;;;;;;10.50;4.70;;;;;;;18.18;22.31;100596.44;104685;1274;73621;-65
2022/04/13 11:47:19;;;;;;;10.10;4.70;;;;;;;17.74;22.59;100597.97;104460;1275;68850;-66
2022/04/13 11:50:14;;;;;;;11.90;5.50;;;;;;;17.41;23.21;100603.00;104882;1274;73543;-65
2022/04/13 11:53:13;;;;;;;14.00;6.10;;;;;;;17.09;23.77;100605.17;105083;1274;60457;-67
2022/04/13 11:56:03;;;;;;;13.60;6.10;;;;;;;16.75;24.48;100594.44;104495;1274;61333;-69
2022/04/13 11:58:51;;;;;;;14.50;6.80;;;;;;;16.77;25.20;100591.04;104947;1275;74977;-70
2022/04/13 12:01:53;;;;;;;12.10;6.50;;;;;;;16.63;25.28;100590.38;104755;1274;69471;-69
2022/04/13 12:04:47;;;;;;;17.30;7.20;;;;;;;16.64;25.26;100575.61;104846;1274;72508;-68
2022/04/13 12:07:37;;;;;;;14.50;7.60;;;;;;;16.29;25.72;100579.23;104865;1274;60478;-67
2022/04/13 12:10:25;;;;;;;13.00;7.20;;;;;;;15.84;26.17;100583.16;104657;1274;60344;-66
2022/04/13 12:13:13;;;;;;;15.20;7.90;;;;;;;15.71;26.81;100581.69;104645;1274;75912;-68
2022/04/13 12:16:03;;;;;;;19.50;9.80;;;;;;;15.33;27.03;100578.44;104844;1274;66842;-69
2022/04/13 12:18:59;;;;;;;15.50;8.40;;;;;;;14.99;27.29;100576.88;104614;1274;73413;-66
2022/04/13 12:21:47;;;;;;;14.90;7.30;;;;;;;14.77;27.63;100570.52;104558;1275;60536;-68
2022/04/13 12:24:35;;;;;;;12.60;6.90;;;;;;;14.73;27.78;100568.08;104562;1275;60429;-66
2022/04/13 12:27:23;;;;;;;11.90;7.10;;;;;;;14.70;27.54;100571.88;104945;1274;74738;-66
2022/04/13 12:30:16;;;;;;;19.90;7.80;;;;;;;14.63;31.28;100563.73;104631;1275;67215;-66
2022/04/13 12:33:21;;;;;;;20.20;7.60;;;;;;;14.73;32.75;100557.82;104820;1274;71831;-66
2022/04/13 12:36:12;;;;;;;17.90;7.20;;;;;;;14.84;33.45;100560.09;104433;1275;60443;-67
2022/04/13 12:38:59;;;;;;;18.60;7.20;;;;;;;14.89;33.47;100561.80;104670;1274;62034;-69
2022/04/13 12:41:47;;;;;;;17.40;7.40;;;;;;;14.88;33.41;100551.92;104585;1274;73478;-65
2022/04/13 12:44:45;;;;;;;18.40;7.30;;;;;;;14.89;33.33;100549.33;104621;1275;67426;-65
2022/04/13 12:47:32;;;;;;;22.20;8.40;;;;;;;14.88;33.19;100558.72;104483;1275;73719;-67
2022/04/13 12:50:20;;;;;;;16.50;7.20;;;;;;;14.86;33.31;100551.55;104608;1275;60507;-66
2022/04/13 12:53:10;;;;;;;17.40;7.50;;;;;;;14.77;33.32;100544.51;104849;1274;60551;-66
2022/04/13 12:55:58;;;;;;;14.70;6.70;;;;;;;14.77;33.47;100535.56;104593;1275;75257;-64
2022/04/13 12:58:46;;;;;;;15.00;6.20;;;;;;;14.79;33.38;100538.36;104566;1275;68996;-67
2022/04/13 13:01:38;;;;;;;17.00;6.70;;;;;;;14.75;33.27;100533.58;104870;1274;72567;-66